createdAt,value
2019-01-05T00:00:37.622Z,13.17
2019-01-05T00:03:34.443Z,10.10
2019-01-05T00:06:39.323Z,12.67
2019-01-05T00:09:27.215Z,12.97
2019-01-05T00:12:22.231Z,13.33
2019-01-05T00:15:29.901Z,11.67
2019-01-05T00:18:31.481Z,13.60
2019-01-05T00:21:20.705Z,12.47
2019-01-05T00:24:22.218Z,13.40
2019-01-05T00:27:14.641Z,13.20
2019-01-05T00:30:10.604Z,12.30
2019-01-05T00:33:03.811Z,13.27
2019-01-05T00:36:09.585Z,14.70
2019-01-05T00:38:58.663Z,14.97
2019-01-05T00:41:46.871Z,15.20
2019-01-05T00:44:35.269Z,12.60
2019-01-05T00:47:28.459Z,12.53
2019-01-05T00:50:36.135Z,14.10
2019-01-05T00:53:30.091Z,13.70
2019-01-05T00:56:18.529Z,12.47
2019-01-05T00:59:07.062Z,13.90
2019-01-05T01:01:59.168Z,12.87
2019-01-05T01:04:48.584Z,12.77
2019-01-05T01:07:38.089Z,12.80
2019-01-05T01:10:36.625Z,12.47
2019-01-05T01:13:25.876Z,13.50
2019-01-05T01:16:27.366Z,13.10
2019-01-05T01:19:15.390Z,12.57
2019-01-05T01:22:04.451Z,12.63
2019-01-05T01:24:52.180Z,11.57
2019-01-05T01:27:42.058Z,10.13
2019-01-05T01:30:33.047Z,11.60
2019-01-05T01:33:31.982Z,11.53
2019-01-05T01:36:24.127Z,11.90
2019-01-05T01:39:14.876Z,12.20
2019-01-05T01:41:59.581Z,13.20
2019-01-05T01:44:55.056Z,11.83
2019-01-05T01:47:41.675Z,11.77
2019-01-05T01:50:30.219Z,11.60
2019-01-05T01:53:27.132Z,12.63
2019-01-05T01:56:21.858Z,10.83
2019-01-05T01:59:11.148Z,11.03
2019-01-05T02:02:13.901Z,12.63
2019-01-05T02:05:21.295Z,11.50
2019-01-05T02:08:25.035Z,12.60
2019-01-05T02:11:13.874Z,11.93
2019-01-05T02:14:03.167Z,12.17
2019-01-05T02:17:21.799Z,11.97
2019-01-05T02:20:19.254Z,11.13
2019-01-05T02:23:39.160Z,10.77
2019-01-05T02:26:43.160Z,11.10
2019-01-05T02:30:24.187Z,11.70
2019-01-05T02:33:32.600Z,11.27
2019-01-05T02:36:48.040Z,10.83
2019-01-05T02:39:37.696Z,9.50
2019-01-05T02:42:40.884Z,11.47
2019-01-05T02:45:54.219Z,9.90
2019-01-05T02:49:07.669Z,9.90
2019-01-05T02:52:21.764Z,10.27
2019-01-05T02:55:36.511Z,9.23
2019-01-05T02:58:48.999Z,9.13
2019-01-05T03:01:58.885Z,7.93
2019-01-05T03:05:18.865Z,8.90
2019-01-05T03:08:30.497Z,9.27
2019-01-05T03:11:49.268Z,7.80
2019-01-05T03:15:14.375Z,8.37
2019-01-05T03:18:50.018Z,8.10
2019-01-05T03:22:06.427Z,7.60
2019-01-05T03:25:16.198Z,8.60
2019-01-05T03:28:35.416Z,8.50
2019-01-05T03:31:51.005Z,8.20
2019-01-05T03:34:44.821Z,7.37
2019-01-05T03:38:08.733Z,8.87
2019-01-05T03:41:37.588Z,8.80
2019-01-05T03:44:52.137Z,8.33
2019-01-05T03:48:14.978Z,8.97
2019-01-05T03:51:35.745Z,8.30
2019-01-05T03:54:45.140Z,9.20
2019-01-05T03:57:50.359Z,7.93
2019-01-05T04:01:01.789Z,7.10
2019-01-05T04:04:31.291Z,8.77
2019-01-05T04:07:54.334Z,9.20
2019-01-05T04:11:11.278Z,7.00
2019-01-05T04:14:24.919Z,8.40
2019-01-05T04:17:30.548Z,7.13
2019-01-05T04:20:56.773Z,6.93
2019-01-05T04:24:09.286Z,7.33
2019-01-05T04:27:19.976Z,8.40
2019-01-05T04:30:39.116Z,7.50
2019-01-05T04:33:31.164Z,7.00
2019-01-05T04:36:28.220Z,7.77
2019-01-05T04:39:42.485Z,7.60
2019-01-05T04:43:04.563Z,7.30
2019-01-05T04:46:05.655Z,7.70
2019-01-05T04:49:11.595Z,8.40
2019-01-05T04:52:27.819Z,7.83
2019-01-05T04:55:29.018Z,9.27
2019-01-05T04:58:51.074Z,7.43
2019-01-05T05:02:05.347Z,7.57
2019-01-05T05:05:21.944Z,8.67
2019-01-05T05:08:48.784Z,8.33
2019-01-05T05:11:52.231Z,8.37
2019-01-05T05:15:09.978Z,8.43
2019-01-05T05:18:08.834Z,7.23
2019-01-05T05:21:14.978Z,8.20
2019-01-05T05:24:37.747Z,8.77
2019-01-05T05:27:52.509Z,9.07
2019-01-05T05:31:09.280Z,8.67
2019-01-05T05:34:10.374Z,8.53
2019-01-05T05:37:15.651Z,8.10
2019-01-05T05:40:43.072Z,9.00
2019-01-05T05:43:46.771Z,8.10
2019-01-05T05:46:59.805Z,19.50
2019-01-05T05:50:12.211Z,62.37
2019-01-05T05:53:38.942Z,48.27
2019-01-05T05:56:37.647Z,21.27
2019-01-05T06:00:00.590Z,11.90
2019-01-05T06:03:07.185Z,14.20
2019-01-05T06:06:11.595Z,13.47
2019-01-05T06:09:09.565Z,11.50
2019-01-05T06:12:06.301Z,11.80
2019-01-05T06:15:12.881Z,11.30
2019-01-05T06:18:33.263Z,10.17
2019-01-05T06:21:35.544Z,8.53
2019-01-05T06:24:38.935Z,9.27
2019-01-05T06:27:56.911Z,8.30
2019-01-05T06:31:26.202Z,8.53
2019-01-05T06:34:22.289Z,9.10
2019-01-05T06:37:26.868Z,9.77
2019-01-05T06:40:41.761Z,8.37
2019-01-05T06:44:15.578Z,9.13
2019-01-05T06:47:19.505Z,9.50
2019-01-05T06:50:38.926Z,9.50
2019-01-05T06:53:48.454Z,9.77
2019-01-05T06:57:00.439Z,9.97
2019-01-05T07:00:13.208Z,9.90
2019-01-05T07:03:34.288Z,11.00
2019-01-05T07:06:46.782Z,10.50
2019-01-05T07:10:05.866Z,12.77
2019-01-05T07:13:21.797Z,13.70
2019-01-05T07:16:43.796Z,11.50
2019-01-05T07:19:50.346Z,13.60
2019-01-05T07:23:19.687Z,14.57
2019-01-05T07:26:25.109Z,16.70
2019-01-05T07:29:31.056Z,16.00
2019-01-05T07:32:56.488Z,17.43
2019-01-05T07:36:15.465Z,16.30
2019-01-05T07:39:20.881Z,19.97
2019-01-05T07:42:26.959Z,17.97
2019-01-05T07:45:27.383Z,16.00
2019-01-05T07:48:33.330Z,18.33
2019-01-05T07:51:53.321Z,19.07
2019-01-05T07:55:12.402Z,16.30
2019-01-05T07:58:23.491Z,17.97
2019-01-05T08:01:31.023Z,17.20
2019-01-05T08:04:54.875Z,16.77
2019-01-05T08:08:22.911Z,16.37
2019-01-05T08:11:28.979Z,16.87
2019-01-05T08:14:55.128Z,16.80
2019-01-05T08:17:58.411Z,16.87
2019-01-05T08:21:05.818Z,17.00
2019-01-05T08:24:19.568Z,17.93
2019-01-05T08:27:32.494Z,16.63
2019-01-05T08:31:01.450Z,17.20
2019-01-05T08:34:13.940Z,15.93
2019-01-05T08:37:24.521Z,15.13
2019-01-05T08:40:53.738Z,17.67
2019-01-05T08:44:09.234Z,16.13
2019-01-05T08:47:25.437Z,13.13
2019-01-05T08:50:27.482Z,14.83
2019-01-05T08:53:34.262Z,14.50
2019-01-05T08:56:51.101Z,16.03
2019-01-05T09:00:09.739Z,15.60
2019-01-05T09:03:22.246Z,14.87
2019-01-05T09:06:44.072Z,15.83
2019-01-05T09:09:53.629Z,14.90
2019-01-05T09:13:19.847Z,17.70
2019-01-05T09:16:23.454Z,16.27
2019-01-05T09:19:45.707Z,15.83
2019-01-05T09:22:50.966Z,18.00
2019-01-05T09:25:44.638Z,18.83
2019-01-05T09:28:48.118Z,14.77
2019-01-05T09:31:53.668Z,15.63
2019-01-05T09:35:10.783Z,15.73
2019-01-05T09:38:23.397Z,38.57
2019-01-05T09:41:30.366Z,29.67
2019-01-05T09:44:36.647Z,21.70
2019-01-05T09:47:42.374Z,21.90
2019-01-05T09:50:55.019Z,16.53
2019-01-05T09:54:12.223Z,18.50
2019-01-05T09:57:19.437Z,18.90
2019-01-05T10:00:23.700Z,17.27
2019-01-05T10:03:30.931Z,18.77
2019-01-05T10:06:40.793Z,16.10
2019-01-05T10:09:46.744Z,17.40
2019-01-05T10:12:56.844Z,18.73
2019-01-05T10:16:00.464Z,17.07
2019-01-05T10:19:07.283Z,16.43
2019-01-05T10:22:12.740Z,14.87
2019-01-05T10:25:31.431Z,16.87
2019-01-05T10:28:31.369Z,15.80
2019-01-05T10:31:56.395Z,20.90
2019-01-05T10:35:07.679Z,18.37
2019-01-05T10:38:24.714Z,15.50
2019-01-05T10:41:34.336Z,17.57
2019-01-05T10:44:46.487Z,13.97
2019-01-05T10:48:07.062Z,13.10
2019-01-05T10:51:25.204Z,12.43
2019-01-05T10:54:34.837Z,14.67
2019-01-05T10:58:03.622Z,14.13
2019-01-05T11:01:22.531Z,15.27
2019-01-05T11:04:52.249Z,14.77
2019-01-05T11:08:08.083Z,10.43
2019-01-05T11:11:34.125Z,12.37
2019-01-05T11:14:45.343Z,13.37
2019-01-05T11:18:06.319Z,15.40
2019-01-05T11:21:02.489Z,10.50
2019-01-05T11:24:28.485Z,11.37
2019-01-05T11:27:34.234Z,10.03
2019-01-05T11:30:59.561Z,10.13
2019-01-05T11:34:02.911Z,12.73
2019-01-05T11:37:21.810Z,14.10
2019-01-05T11:40:48.047Z,10.23
2019-01-05T11:44:03.229Z,8.77
2019-01-05T11:47:27.079Z,11.77
2019-01-05T11:50:22.491Z,13.50
2019-01-05T11:53:36.346Z,11.63
2019-01-05T11:56:49.207Z,10.27
2019-01-05T11:59:54.931Z,11.40
2019-01-05T12:03:07.215Z,12.63
2019-01-05T12:06:34.990Z,12.33
2019-01-05T12:09:40.433Z,10.63
2019-01-05T12:13:03.992Z,11.67
2019-01-05T12:16:30.960Z,11.30
2019-01-05T12:19:40.731Z,11.30
2019-01-05T12:22:47.444Z,11.90
2019-01-05T12:25:54.311Z,12.80
2019-01-05T12:28:50.483Z,11.13
2019-01-05T12:32:07.437Z,12.60
2019-01-05T12:35:09.689Z,12.17
2019-01-05T12:38:19.421Z,13.10
2019-01-05T12:41:26.719Z,11.20
2019-01-05T12:44:53.290Z,13.90
2019-01-05T12:47:54.299Z,14.10
2019-01-05T12:50:57.314Z,12.47
2019-01-05T12:54:20.890Z,14.67
2019-01-05T12:57:26.613Z,16.60
2019-01-05T13:00:40.834Z,18.57
2019-01-05T13:03:59.844Z,21.70
2019-01-05T13:07:24.703Z,35.70
2019-01-05T13:10:56.388Z,21.00
2019-01-05T13:14:16.888Z,9.43
2019-01-05T13:17:42.727Z,10.50
2019-01-05T13:21:06.606Z,9.40
2019-01-05T13:24:23.743Z,8.90
2019-01-05T13:27:35.425Z,10.79
2019-01-05T13:30:42.108Z,8.60
2019-01-05T13:34:01.356Z,9.47
2019-01-05T13:37:02.555Z,22.07
2019-01-05T13:40:13.582Z,17.37
2019-01-05T13:43:23.661Z,13.40
2019-01-05T13:46:31.636Z,12.13
2019-01-05T13:49:33.025Z,9.97
2019-01-05T13:52:43.262Z,13.27
2019-01-05T13:55:44.230Z,10.77
2019-01-05T13:58:36.212Z,11.27
2019-01-05T14:01:25.715Z,10.13
2019-01-05T14:04:14.972Z,13.27
2019-01-05T14:07:17.023Z,14.47
2019-01-05T14:10:04.974Z,12.13
2019-01-05T14:12:52.833Z,12.30
2019-01-05T14:15:40.519Z,11.90
2019-01-05T14:18:30.021Z,15.30
2019-01-05T14:21:19.829Z,15.40
2019-01-05T14:23:58.230Z,13.60
2019-01-05T14:26:46.635Z,18.70
2019-01-05T14:29:48.405Z,15.40
2019-01-05T14:32:40.339Z,18.40
2019-01-05T14:35:30.655Z,16.37
2019-01-05T14:38:25.823Z,14.93
2019-01-05T14:41:09.112Z,15.70
2019-01-05T14:43:56.075Z,20.40
2019-01-05T14:46:44.016Z,18.93
2019-01-05T14:49:31.750Z,18.47
2019-01-05T14:52:19.670Z,17.70
2019-01-05T14:55:07.843Z,17.73
2019-01-05T14:57:57.631Z,18.47
2019-01-05T15:01:14.379Z,17.80
2019-01-05T15:04:08.953Z,23.77
2019-01-05T15:07:00.924Z,20.27
2019-01-05T15:09:56.041Z,17.30
2019-01-05T15:12:57.395Z,14.67
2019-01-05T15:15:39.132Z,13.50
2019-01-05T15:18:26.799Z,14.90
2019-01-05T15:21:25.244Z,14.97
2019-01-05T15:24:13.868Z,12.57
2019-01-05T15:27:06.474Z,15.27
2019-01-05T15:29:55.042Z,11.23
2019-01-05T15:32:59.497Z,11.10
2019-01-05T15:35:47.523Z,15.00
2019-01-05T15:38:39.654Z,14.27
2019-01-05T15:41:28.737Z,14.43
2019-01-05T15:44:19.107Z,15.80
2019-01-05T15:47:17.375Z,12.00
2019-01-05T15:50:12.954Z,18.90
2019-01-05T15:53:00.354Z,29.60
2019-01-05T15:55:49.767Z,23.40
2019-01-05T15:58:57.366Z,24.70
2019-01-05T16:01:47.350Z,20.17
2019-01-05T16:04:42.365Z,21.30
2019-01-05T16:07:30.494Z,17.23
2019-01-05T16:10:18.529Z,22.13
2019-01-05T16:13:06.797Z,22.40
2019-01-05T16:15:59.748Z,23.97
2019-01-05T16:18:55.563Z,17.93
2019-01-05T16:22:02.736Z,18.77
2019-01-05T16:25:07.902Z,15.53
2019-01-05T16:27:55.609Z,19.93
2019-01-05T16:30:47.683Z,21.90
2019-01-05T16:33:37.256Z,23.33
2019-01-05T16:36:24.948Z,38.10
2019-01-05T16:39:20.240Z,26.20
2019-01-05T16:42:18.871Z,26.97
2019-01-05T16:45:13.020Z,27.30
2019-01-05T16:48:02.603Z,25.20
2019-01-05T16:50:50.337Z,20.00
2019-01-05T16:53:45.941Z,22.83
2019-01-05T16:56:37.974Z,19.93
2019-01-05T16:59:26.333Z,23.43
2019-01-05T17:02:27.411Z,18.27
2019-01-05T17:05:15.831Z,25.00
2019-01-05T17:08:05.097Z,20.30
2019-01-05T17:11:06.679Z,24.80
2019-01-05T17:13:54.579Z,24.33
2019-01-05T17:16:59.121Z,23.80
2019-01-05T17:19:47.153Z,25.70
2019-01-05T17:22:54.797Z,27.93
2019-01-05T17:25:44.476Z,27.67
2019-01-05T17:28:45.868Z,29.33
2019-01-05T17:31:34.948Z,33.37
2019-01-05T17:34:27.269Z,30.87
2019-01-05T17:37:20.418Z,32.80
2019-01-05T17:40:22.091Z,30.90
2019-01-05T17:43:12.294Z,25.67
2019-01-05T17:46:01.850Z,25.90
2019-01-05T17:48:49.775Z,28.97
2019-01-05T17:51:51.293Z,28.60
2019-01-05T17:54:49.354Z,38.00
2019-01-05T17:57:48.190Z,31.60
2019-01-05T18:00:36.384Z,32.20
2019-01-05T18:03:35.162Z,34.33
2019-01-05T18:06:36.608Z,37.00
2019-01-05T18:09:29.444Z,34.77
2019-01-05T18:12:17.267Z,25.67
2019-01-05T18:15:06.653Z,35.73
2019-01-05T18:17:58.926Z,36.87
2019-01-05T18:20:47.437Z,41.17
2019-01-05T18:23:39.879Z,35.53
2019-01-05T18:26:35.969Z,41.67
2019-01-05T18:29:30.904Z,32.30
2019-01-05T18:32:18.725Z,42.97
2019-01-05T18:35:20.302Z,38.50
2019-01-05T18:38:24.927Z,37.57
2019-01-05T18:41:32.654Z,44.30
2019-01-05T18:44:28.026Z,35.80
2019-01-05T18:47:29.506Z,36.93
2019-01-05T18:50:12.416Z,41.57
2019-01-05T18:53:19.703Z,39.20
2019-01-05T18:56:12.146Z,44.90
2019-01-05T18:59:07.955Z,52.80
2019-01-05T19:02:09.299Z,34.43
2019-01-05T19:04:53.419Z,34.40
2019-01-05T19:07:42.822Z,42.90
2019-01-05T19:10:46.223Z,46.53
2019-01-05T19:13:45.138Z,36.83
2019-01-05T19:16:33.056Z,44.43
2019-01-05T19:19:29.359Z,49.30
2019-01-05T19:22:24.423Z,41.83
2019-01-05T19:25:16.747Z,44.63
2019-01-05T19:28:05.845Z,31.37
2019-01-05T19:31:04.484Z,45.70
2019-01-05T19:33:52.262Z,41.13
2019-01-05T19:36:41.771Z,29.57
2019-01-05T19:39:29.702Z,30.53
2019-01-05T19:42:31.562Z,39.50
2019-01-05T19:45:21.584Z,29.73
2019-01-05T19:48:11.127Z,41.90
2019-01-05T19:51:18.939Z,39.90
2019-01-05T19:54:06.786Z,46.90
2019-01-05T19:56:56.022Z,32.13
2019-01-05T19:59:48.684Z,44.77
2019-01-05T20:02:34.457Z,30.90
2019-01-05T20:05:23.026Z,41.97
2019-01-05T20:08:24.307Z,44.33
2019-01-05T20:11:12.623Z,44.00
2019-01-05T20:14:11.561Z,37.93
2019-01-05T20:16:59.053Z,47.73
2019-01-05T20:19:48.406Z,43.20
2019-01-05T20:22:37.782Z,46.30
2019-01-05T20:25:22.123Z,48.27
2019-01-05T20:28:12.189Z,46.57
2019-01-05T20:31:07.804Z,47.73
2019-01-05T20:33:55.854Z,45.23
2019-01-05T20:37:00.284Z,46.10
2019-01-05T20:39:56.209Z,35.47
2019-01-05T20:42:44.199Z,32.07
2019-01-05T20:45:52.190Z,35.83
2019-01-05T20:48:43.682Z,47.13
2019-01-05T20:51:35.862Z,47.40
2019-01-05T20:54:40.047Z,50.50
2019-01-05T20:57:31.872Z,51.47
2019-01-05T21:00:33.007Z,50.93
2019-01-05T21:03:22.262Z,44.83
2019-01-05T21:06:11.635Z,47.40
2019-01-05T21:09:14.312Z,42.60
2019-01-05T21:12:02.134Z,48.03
2019-01-05T21:14:50.486Z,40.97
2019-01-05T21:17:38.325Z,39.03
2019-01-05T21:20:26.967Z,40.83
2019-01-05T21:23:24.909Z,41.80
2019-01-05T21:26:24.378Z,39.70
2019-01-05T21:29:18.729Z,29.70
2019-01-05T21:32:23.722Z,41.50
2019-01-05T21:35:18.871Z,43.23
2019-01-05T21:38:14.098Z,37.60
2019-01-05T21:41:18.294Z,42.73
2019-01-05T21:44:01.538Z,28.70
2019-01-05T21:46:56.726Z,39.03
2019-01-05T21:49:44.872Z,32.20
2019-01-05T21:52:32.822Z,35.60
2019-01-05T21:55:34.061Z,46.27
2019-01-05T21:58:35.552Z,33.90
2019-01-05T22:01:32.275Z,32.82
2019-01-05T22:04:39.821Z,40.00
2019-01-05T22:07:28.104Z,34.10
2019-01-05T22:10:26.465Z,47.03
2019-01-05T22:13:18.710Z,42.50
2019-01-05T22:16:10.631Z,45.07
2019-01-05T22:19:02.977Z,47.27
2019-01-05T22:21:52.029Z,44.37
2019-01-05T22:24:40.480Z,45.33
2019-01-05T22:27:38.893Z,38.57
2019-01-05T22:30:48.012Z,40.00
2019-01-05T22:33:52.316Z,37.70
2019-01-05T22:36:56.644Z,37.30
2019-01-05T22:39:51.762Z,39.77
2019-01-05T22:42:46.944Z,37.87
2019-01-05T22:45:33.142Z,31.07
2019-01-05T22:48:25.283Z,38.90
2019-01-05T22:51:14.309Z,30.47
2019-01-05T22:54:15.896Z,32.77
2019-01-05T22:57:08.343Z,34.17
2019-01-05T22:59:56.482Z,34.93
2019-01-05T23:02:54.469Z,34.43
2019-01-05T23:05:42.351Z,23.93
2019-01-05T23:08:46.787Z,32.27
2019-01-05T23:11:34.743Z,33.87
2019-01-05T23:14:38.995Z,32.47
2019-01-05T23:17:28.141Z,27.67
2019-01-05T23:20:35.478Z,32.57
2019-01-05T23:23:22.988Z,30.27
2019-01-05T23:26:12.273Z,31.63
2019-01-05T23:28:58.659Z,30.43
2019-01-05T23:32:07.015Z,23.80
2019-01-05T23:34:50.980Z,35.40
2019-01-05T23:37:40.239Z,33.13
2019-01-05T23:40:29.711Z,31.10
2019-01-05T23:43:36.887Z,32.50
2019-01-05T23:46:41.339Z,23.07
2019-01-05T23:49:48.752Z,32.87
2019-01-05T23:52:47.409Z,31.57
2019-01-05T23:55:42.603Z,34.37
2019-01-05T23:58:44.982Z,27.63
